sensor_id;sensor_type;location;lat;lon;timestamp;pressure;altitude;pressure_sealevel;temperature
69590;BMP180;56792;50.644;17.984;2023-03-01T00:01:34;100981.20;;;-4.20
69590;BMP180;56792;50.644;17.984;2023-03-01T00:04:07;100973.80;;;-4.20
69590;BMP180;56792;50.644;17.984;2023-03-01T00:06:39;100972.20;;;-4.26
69590;BMP180;56792;50.644;17.984;2023-03-01T00:09:12;100980.60;;;-4.30
69590;BMP180;56792;50.644;17.984;2023-03-01T00:11:45;100983.80;;;-4.30
69590;BMP180;56792;50.644;17.984;2023-03-01T00:14:17;100988.20;;;-4.40
69590;BMP180;56792;50.644;17.984;2023-03-01T00:16:50;100989.20;;;-4.40
69590;BMP180;56792;50.644;17.984;2023-03-01T00:19:23;100988.00;;;-4.40
69590;BMP180;56792;50.644;17.984;2023-03-01T00:21:55;100987.60;;;-4.44
69590;BMP180;56792;50.644;17.984;2023-03-01T00:24:27;100982.60;;;-4.50
69590;BMP180;56792;50.644;17.984;2023-03-01T00:26:59;100986.40;;;-4.48
69590;BMP180;56792;50.644;17.984;2023-03-01T00:29:32;100988.60;;;-4.50
69590;BMP180;56792;50.644;17.984;2023-03-01T00:32:04;100987.80;;;-4.50
69590;BMP180;56792;50.644;17.984;2023-03-01T00:34:36;100988.60;;;-4.48
69590;BMP180;56792;50.644;17.984;2023-03-01T00:37:08;100988.00;;;-4.42
69590;BMP180;56792;50.644;17.984;2023-03-01T00:39:41;100982.20;;;-4.40
69590;BMP180;56792;50.644;17.984;2023-03-01T00:42:13;100982.00;;;-4.44
69590;BMP180;56792;50.644;17.984;2023-03-01T00:44:47;100980.00;;;-4.50
69590;BMP180;56792;50.644;17.984;2023-03-01T00:47:20;100972.80;;;-4.50
69590;BMP180;56792;50.644;17.984;2023-03-01T00:49:52;100972.80;;;-4.50
69590;BMP180;56792;50.644;17.984;2023-03-01T00:52:24;100974.00;;;-4.52
69590;BMP180;56792;50.644;17.984;2023-03-01T00:54:57;100979.20;;;-4.54
69590;BMP180;56792;50.644;17.984;2023-03-01T00:57:29;100978.20;;;-4.50
69590;BMP180;56792;50.644;17.984;2023-03-01T01:00:02;100976.20;;;-4.54
69590;BMP180;56792;50.644;17.984;2023-03-01T01:02:35;100975.00;;;-4.60
69590;BMP180;56792;50.644;17.984;2023-03-01T01:05:09;100974.60;;;-4.60
69590;BMP180;56792;50.644;17.984;2023-03-01T01:07:41;100970.80;;;-4.60
69590;BMP180;56792;50.644;17.984;2023-03-01T01:10:14;100975.40;;;-4.60
69590;BMP180;56792;50.644;17.984;2023-03-01T01:12:48;100966.80;;;-4.70
69590;BMP180;56792;50.644;17.984;2023-03-01T01:15:21;100963.80;;;-4.80
69590;BMP180;56792;50.644;17.984;2023-03-01T01:17:53;100960.80;;;-4.80
69590;BMP180;56792;50.644;17.984;2023-03-01T01:20:26;100960.40;;;-4.80
69590;BMP180;56792;50.644;17.984;2023-03-01T01:22:58;100962.60;;;-4.80
69590;BMP180;56792;50.644;17.984;2023-03-01T01:25:30;100965.00;;;-4.86
69590;BMP180;56792;50.644;17.984;2023-03-01T01:28:06;100962.40;;;-4.88
69590;BMP180;56792;50.644;17.984;2023-03-01T01:30:38;100958.00;;;-4.82
69590;BMP180;56792;50.644;17.984;2023-03-01T01:33:10;100962.20;;;-4.80
69590;BMP180;56792;50.644;17.984;2023-03-01T01:35:44;100956.60;;;-4.78
69590;BMP180;56792;50.644;17.984;2023-03-01T01:38:16;100956.20;;;-4.76
69590;BMP180;56792;50.644;17.984;2023-03-01T01:40:50;100954.20;;;-4.76
69590;BMP180;56792;50.644;17.984;2023-03-01T01:43:26;100950.40;;;-4.78
69590;BMP180;56792;50.644;17.984;2023-03-01T01:46:01;100944.00;;;-4.70
69590;BMP180;56792;50.644;17.984;2023-03-01T01:48:41;100938.20;;;-4.80
69590;BMP180;56792;50.644;17.984;2023-03-01T01:51:20;100929.00;;;-4.80
69590;BMP180;56792;50.644;17.984;2023-03-01T01:54:00;100926.40;;;-4.80
69590;BMP180;56792;50.644;17.984;2023-03-01T01:56:34;100926.60;;;-4.80
69590;BMP180;56792;50.644;17.984;2023-03-01T01:59:09;100927.00;;;-4.86
69590;BMP180;56792;50.644;17.984;2023-03-01T02:01:42;100921.80;;;-4.90
69590;BMP180;56792;50.644;17.984;2023-03-01T02:04:14;100921.00;;;-4.90
69590;BMP180;56792;50.644;17.984;2023-03-01T02:06:53;100920.00;;;-4.90
69590;BMP180;56792;50.644;17.984;2023-03-01T02:09:28;100917.20;;;-5.00
69590;BMP180;56792;50.644;17.984;2023-03-01T02:12:03;100914.20;;;-5.00
69590;BMP180;56792;50.644;17.984;2023-03-01T02:14:35;100919.00;;;-5.00
69590;BMP180;56792;50.644;17.984;2023-03-01T02:17:08;100913.20;;;-5.10
69590;BMP180;56792;50.644;17.984;2023-03-01T02:20:06;100917.80;;;-5.10
69590;BMP180;56792;50.644;17.984;2023-03-01T02:22:47;100925.40;;;-5.12
69590;BMP180;56792;50.644;17.984;2023-03-01T02:25:43;100925.00;;;-5.16
69590;BMP180;56792;50.644;17.984;2023-03-01T02:28:38;100925.20;;;-5.20
69590;BMP180;56792;50.644;17.984;2023-03-01T02:31:16;100922.80;;;-5.20
69590;BMP180;56792;50.644;17.984;2023-03-01T02:34:08;100914.00;;;-5.20
69590;BMP180;56792;50.644;17.984;2023-03-01T02:36:47;100915.40;;;-5.18
69590;BMP180;56792;50.644;17.984;2023-03-01T02:39:23;100916.20;;;-5.20
69590;BMP180;56792;50.644;17.984;2023-03-01T02:41:58;100919.60;;;-5.20
69590;BMP180;56792;50.644;17.984;2023-03-01T02:44:31;100910.00;;;-5.14
69590;BMP180;56792;50.644;17.984;2023-03-01T02:47:06;100917.40;;;-5.10
69590;BMP180;56792;50.644;17.984;2023-03-01T02:49:39;100921.60;;;-5.10
69590;BMP180;56792;50.644;17.984;2023-03-01T02:52:47;100921.20;;;-5.10
69590;BMP180;56792;50.644;17.984;2023-03-01T02:55:24;100919.60;;;-5.10
69590;BMP180;56792;50.644;17.984;2023-03-01T02:57:57;100916.20;;;-5.10
69590;BMP180;56792;50.644;17.984;2023-03-01T03:00:36;100920.40;;;-5.18
69590;BMP180;56792;50.644;17.984;2023-03-01T03:03:11;100924.20;;;-5.20
69590;BMP180;56792;50.644;17.984;2023-03-01T03:05:45;100923.60;;;-5.20
69590;BMP180;56792;50.644;17.984;2023-03-01T03:08:18;100924.40;;;-5.22
69590;BMP180;56792;50.644;17.984;2023-03-01T03:10:54;100921.60;;;-5.30
69590;BMP180;56792;50.644;17.984;2023-03-01T03:13:27;100919.00;;;-5.30
69590;BMP180;56792;50.644;17.984;2023-03-01T03:16:00;100923.40;;;-5.30
69590;BMP180;56792;50.644;17.984;2023-03-01T03:18:34;100914.40;;;-5.40
69590;BMP180;56792;50.644;17.984;2023-03-01T03:21:09;100913.20;;;-5.40
69590;BMP180;56792;50.644;17.984;2023-03-01T03:23:42;100914.40;;;-5.40
69590;BMP180;56792;50.644;17.984;2023-03-01T03:26:14;100915.80;;;-5.40
69590;BMP180;56792;50.644;17.984;2023-03-01T03:28:46;100907.20;;;-5.40
69590;BMP180;56792;50.644;17.984;2023-03-01T03:31:19;100902.80;;;-5.44
69590;BMP180;56792;50.644;17.984;2023-03-01T03:33:52;100902.80;;;-5.50
69590;BMP180;56792;50.644;17.984;2023-03-01T03:36:25;100911.00;;;-5.50
69590;BMP180;56792;50.644;17.984;2023-03-01T03:38:58;100906.80;;;-5.50
69590;BMP180;56792;50.644;17.984;2023-03-01T03:41:30;100905.40;;;-5.50
69590;BMP180;56792;50.644;17.984;2023-03-01T03:44:02;100902.60;;;-5.50
69590;BMP180;56792;50.644;17.984;2023-03-01T03:46:35;100902.60;;;-5.40
69590;BMP180;56792;50.644;17.984;2023-03-01T03:49:07;100890.00;;;-5.40
69590;BMP180;56792;50.644;17.984;2023-03-01T03:51:39;100892.80;;;-5.40
69590;BMP180;56792;50.644;17.984;2023-03-01T03:54:12;100889.40;;;-5.40
69590;BMP180;56792;50.644;17.984;2023-03-01T03:56:44;100896.00;;;-5.40
69590;BMP180;56792;50.644;17.984;2023-03-01T03:59:16;100894.20;;;-5.40
69590;BMP180;56792;50.644;17.984;2023-03-01T04:01:48;100889.00;;;-5.40
69590;BMP180;56792;50.644;17.984;2023-03-01T04:04:20;100885.60;;;-5.42
69590;BMP180;56792;50.644;17.984;2023-03-01T04:06:53;100885.00;;;-5.50
69590;BMP180;56792;50.644;17.984;2023-03-01T04:09:25;100885.80;;;-5.50
69590;BMP180;56792;50.644;17.984;2023-03-01T04:11:58;100885.60;;;-5.50
69590;BMP180;56792;50.644;17.984;2023-03-01T04:14:30;100880.80;;;-5.50
69590;BMP180;56792;50.644;17.984;2023-03-01T04:17:02;100884.00;;;-5.58
69590;BMP180;56792;50.644;17.984;2023-03-01T04:19:35;100884.00;;;-5.60
69590;BMP180;56792;50.644;17.984;2023-03-01T04:22:08;100885.40;;;-5.60
69590;BMP180;56792;50.644;17.984;2023-03-01T04:24:41;100885.00;;;-5.70
69590;BMP180;56792;50.644;17.984;2023-03-01T04:27:14;100887.20;;;-5.70
69590;BMP180;56792;50.644;17.984;2023-03-01T04:29:46;100884.60;;;-5.70
69590;BMP180;56792;50.644;17.984;2023-03-01T04:32:18;100880.40;;;-5.70
69590;BMP180;56792;50.644;17.984;2023-03-01T04:34:51;100881.60;;;-5.70
69590;BMP180;56792;50.644;17.984;2023-03-01T04:37:25;100890.20;;;-5.70
69590;BMP180;56792;50.644;17.984;2023-03-01T04:39:57;100884.60;;;-5.70
69590;BMP180;56792;50.644;17.984;2023-03-01T04:42:29;100886.20;;;-5.70
69590;BMP180;56792;50.644;17.984;2023-03-01T04:45:01;100881.20;;;-5.72
69590;BMP180;56792;50.644;17.984;2023-03-01T04:47:34;100890.00;;;-5.70
69590;BMP180;56792;50.644;17.984;2023-03-01T04:50:11;100884.40;;;-5.70
69590;BMP180;56792;50.644;17.984;2023-03-01T04:52:45;100881.80;;;-5.62
69590;BMP180;56792;50.644;17.984;2023-03-01T04:55:17;100882.80;;;-5.60
69590;BMP180;56792;50.644;17.984;2023-03-01T04:57:50;100883.20;;;-5.70
69590;BMP180;56792;50.644;17.984;2023-03-01T05:00:23;100887.40;;;-5.70
69590;BMP180;56792;50.644;17.984;2023-03-01T05:02:59;100884.40;;;-5.70
69590;BMP180;56792;50.644;17.984;2023-03-01T05:05:35;100879.80;;;-5.78
69590;BMP180;56792;50.644;17.984;2023-03-01T05:08:09;100875.20;;;-5.72
69590;BMP180;56792;50.644;17.984;2023-03-01T05:10:50;100876.80;;;-5.76
69590;BMP180;56792;50.644;17.984;2023-03-01T05:13:23;100879.80;;;-5.80
69590;BMP180;56792;50.644;17.984;2023-03-01T05:16:00;100876.60;;;-5.80
69590;BMP180;56792;50.644;17.984;2023-03-01T05:21:11;100867.80;;;-5.90
69590;BMP180;56792;50.644;17.984;2023-03-01T05:23:43;100864.20;;;-5.90
69590;BMP180;56792;50.644;17.984;2023-03-01T05:26:17;100862.40;;;-6.00
69590;BMP180;56792;50.644;17.984;2023-03-01T05:28:52;100860.20;;;-6.00
69590;BMP180;56792;50.644;17.984;2023-03-01T05:31:27;100857.40;;;-6.00
69590;BMP180;56792;50.644;17.984;2023-03-01T05:34:01;100862.20;;;-6.00
69590;BMP180;56792;50.644;17.984;2023-03-01T05:36:33;100874.40;;;-6.00
69590;BMP180;56792;50.644;17.984;2023-03-01T05:39:06;100870.40;;;-6.00
69590;BMP180;56792;50.644;17.984;2023-03-01T05:41:38;100869.20;;;-6.00
69590;BMP180;56792;50.644;17.984;2023-03-01T05:44:11;100872.80;;;-5.96
69590;BMP180;56792;50.644;17.984;2023-03-01T05:46:43;100880.40;;;-5.90
69590;BMP180;56792;50.644;17.984;2023-03-01T05:49:16;100880.20;;;-5.90
69590;BMP180;56792;50.644;17.984;2023-03-01T05:51:53;100879.20;;;-5.80
69590;BMP180;56792;50.644;17.984;2023-03-01T05:54:26;100877.00;;;-5.80
69590;BMP180;56792;50.644;17.984;2023-03-01T05:56:58;100886.40;;;-5.80
69590;BMP180;56792;50.644;17.984;2023-03-01T05:59:31;100886.40;;;-5.70
69590;BMP180;56792;50.644;17.984;2023-03-01T06:02:03;100896.40;;;-5.70
69590;BMP180;56792;50.644;17.984;2023-03-01T06:04:35;100890.00;;;-5.60
69590;BMP180;56792;50.644;17.984;2023-03-01T06:07:08;100883.20;;;-5.60
69590;BMP180;56792;50.644;17.984;2023-03-01T06:09:40;100886.20;;;-5.50
69590;BMP180;56792;50.644;17.984;2023-03-01T06:12:12;100892.60;;;-5.50
69590;BMP180;56792;50.644;17.984;2023-03-01T06:14:44;100895.80;;;-5.40
69590;BMP180;56792;50.644;17.984;2023-03-01T06:17:17;100901.20;;;-5.40
69590;BMP180;56792;50.644;17.984;2023-03-01T06:19:50;100897.80;;;-5.30
69590;BMP180;56792;50.644;17.984;2023-03-01T06:22:22;100902.80;;;-5.28
69590;BMP180;56792;50.644;17.984;2023-03-01T06:24:56;100908.00;;;-5.20
69590;BMP180;56792;50.644;17.984;2023-03-01T06:27:29;100907.00;;;-5.10
69590;BMP180;56792;50.644;17.984;2023-03-01T06:30:01;100902.80;;;-5.00
69590;BMP180;56792;50.644;17.984;2023-03-01T06:32:34;100901.60;;;-4.90
69590;BMP180;56792;50.644;17.984;2023-03-01T06:35:08;100902.20;;;-4.80
69590;BMP180;56792;50.644;17.984;2023-03-01T06:37:41;100899.00;;;-4.70
69590;BMP180;56792;50.644;17.984;2023-03-01T06:40:15;100908.80;;;-4.60
69590;BMP180;56792;50.644;17.984;2023-03-01T06:42:51;100903.40;;;-4.50
69590;BMP180;56792;50.644;17.984;2023-03-01T06:45:25;100900.80;;;-4.30
69590;BMP180;56792;50.644;17.984;2023-03-01T06:48:05;100902.60;;;-4.06
69590;BMP180;56792;50.644;17.984;2023-03-01T06:50:38;100904.60;;;-3.80
69590;BMP180;56792;50.644;17.984;2023-03-01T06:53:11;100900.40;;;-3.44
69590;BMP180;56792;50.644;17.984;2023-03-01T06:55:43;100897.40;;;-3.14
69590;BMP180;56792;50.644;17.984;2023-03-01T06:58:16;100895.60;;;-2.80
69590;BMP180;56792;50.644;17.984;2023-03-01T07:00:48;100889.20;;;-2.46
69590;BMP180;56792;50.644;17.984;2023-03-01T07:03:20;100891.20;;;-2.20
69590;BMP180;56792;50.644;17.984;2023-03-01T07:05:54;100894.20;;;-1.88
69590;BMP180;56792;50.644;17.984;2023-03-01T07:08:27;100886.80;;;-1.52
69590;BMP180;56792;50.644;17.984;2023-03-01T07:11:00;100882.40;;;-1.26
69590;BMP180;56792;50.644;17.984;2023-03-01T07:13:35;100878.60;;;-1.00
69590;BMP180;56792;50.644;17.984;2023-03-01T07:16:09;100871.80;;;-0.72
69590;BMP180;56792;50.644;17.984;2023-03-01T07:18:43;100871.20;;;-0.60
69590;BMP180;56792;50.644;17.984;2023-03-01T07:21:16;100867.00;;;-0.30
69590;BMP180;56792;50.644;17.984;2023-03-01T07:23:51;100865.20;;;-0.10
69590;BMP180;56792;50.644;17.984;2023-03-01T07:26:23;100869.40;;;0.06
69590;BMP180;56792;50.644;17.984;2023-03-01T07:28:57;100861.00;;;0.20
69590;BMP180;56792;50.644;17.984;2023-03-01T07:31:31;100868.20;;;0.38
69590;BMP180;56792;50.644;17.984;2023-03-01T07:34:04;100874.80;;;0.58
69590;BMP180;56792;50.644;17.984;2023-03-01T07:36:37;100878.40;;;0.86
69590;BMP180;56792;50.644;17.984;2023-03-01T07:39:10;100873.60;;;1.18
69590;BMP180;56792;50.644;17.984;2023-03-01T07:41:43;100879.20;;;1.44
69590;BMP180;56792;50.644;17.984;2023-03-01T07:44:16;100876.20;;;1.74
69590;BMP180;56792;50.644;17.984;2023-03-01T07:46:48;100880.80;;;1.90
69590;BMP180;56792;50.644;17.984;2023-03-01T07:49:32;100882.20;;;2.10
69590;BMP180;56792;50.644;17.984;2023-03-01T07:52:07;100880.00;;;2.50
69590;BMP180;56792;50.644;17.984;2023-03-01T07:54:44;100875.80;;;2.80
69590;BMP180;56792;50.644;17.984;2023-03-01T07:57:16;100885.20;;;2.90
69590;BMP180;56792;50.644;17.984;2023-03-01T07:59:48;100878.80;;;3.10
69590;BMP180;56792;50.644;17.984;2023-03-01T08:02:21;100878.00;;;3.36
69590;BMP180;56792;50.644;17.984;2023-03-01T08:04:53;100874.60;;;3.60
69590;BMP180;56792;50.644;17.984;2023-03-01T08:07:26;100873.00;;;3.86
69590;BMP180;56792;50.644;17.984;2023-03-01T08:09:58;100871.20;;;4.00
69590;BMP180;56792;50.644;17.984;2023-03-01T08:12:30;100873.40;;;4.28
69590;BMP180;56792;50.644;17.984;2023-03-01T08:15:03;100866.80;;;4.40
69590;BMP180;56792;50.644;17.984;2023-03-01T08:17:36;100864.40;;;4.60
69590;BMP180;56792;50.644;17.984;2023-03-01T08:20:12;100863.60;;;4.80
69590;BMP180;56792;50.644;17.984;2023-03-01T08:22:45;100866.00;;;4.90
69590;BMP180;56792;50.644;17.984;2023-03-01T08:25:18;100862.20;;;5.10
69590;BMP180;56792;50.644;17.984;2023-03-01T08:27:51;100858.00;;;5.20
69590;BMP180;56792;50.644;17.984;2023-03-01T08:30:23;100865.00;;;5.40
69590;BMP180;56792;50.644;17.984;2023-03-01T08:32:56;100864.40;;;5.60
69590;BMP180;56792;50.644;17.984;2023-03-01T08:35:29;100866.40;;;5.80
69590;BMP180;56792;50.644;17.984;2023-03-01T08:38:02;100861.00;;;6.10
69590;BMP180;56792;50.644;17.984;2023-03-01T08:40:35;100861.00;;;6.40
69590;BMP180;56792;50.644;17.984;2023-03-01T08:43:08;100861.40;;;6.60
69590;BMP180;56792;50.644;17.984;2023-03-01T08:45:40;100860.80;;;6.76
69590;BMP180;56792;50.644;17.984;2023-03-01T08:48:12;100865.40;;;6.96
69590;BMP180;56792;50.644;17.984;2023-03-01T08:50:44;100863.00;;;7.10
69590;BMP180;56792;50.644;17.984;2023-03-01T08:53:17;100860.60;;;7.20
69590;BMP180;56792;50.644;17.984;2023-03-01T08:55:55;100864.00;;;7.30
69590;BMP180;56792;50.644;17.984;2023-03-01T08:58:39;100862.60;;;7.40
69590;BMP180;56792;50.644;17.984;2023-03-01T09:01:16;100859.80;;;7.62
69590;BMP180;56792;50.644;17.984;2023-03-01T09:03:49;100859.40;;;7.96
69590;BMP180;56792;50.644;17.984;2023-03-01T09:06:22;100855.00;;;8.40
69590;BMP180;56792;50.644;17.984;2023-03-01T09:08:55;100855.40;;;8.82
69590;BMP180;56792;50.644;17.984;2023-03-01T09:11:27;100862.20;;;9.40
69590;BMP180;56792;50.644;17.984;2023-03-01T09:13:59;100856.20;;;10.14
69590;BMP180;56792;50.644;17.984;2023-03-01T09:16:32;100860.20;;;11.08
69590;BMP180;56792;50.644;17.984;2023-03-01T09:19:06;100860.40;;;12.30
69590;BMP180;56792;50.644;17.984;2023-03-01T09:21:39;100862.00;;;13.26
69590;BMP180;56792;50.644;17.984;2023-03-01T09:24:18;100861.20;;;14.16
69590;BMP180;56792;50.644;17.984;2023-03-01T09:26:51;100860.60;;;14.96
69590;BMP180;56792;50.644;17.984;2023-03-01T09:29:25;100864.20;;;15.78
69590;BMP180;56792;50.644;17.984;2023-03-01T09:32:04;100864.20;;;16.56
69590;BMP180;56792;50.644;17.984;2023-03-01T09:34:39;100861.40;;;17.44
69590;BMP180;56792;50.644;17.984;2023-03-01T09:37:25;100858.20;;;18.44
69590;BMP180;56792;50.644;17.984;2023-03-01T09:39:58;100856.40;;;18.82
69590;BMP180;56792;50.644;17.984;2023-03-01T09:42:32;100852.40;;;19.32
69590;BMP180;56792;50.644;17.984;2023-03-01T09:45:15;100852.80;;;20.08
69590;BMP180;56792;50.644;17.984;2023-03-01T09:47:52;100851.60;;;20.68
69590;BMP180;56792;50.644;17.984;2023-03-01T09:50:28;100844.80;;;21.04
69590;BMP180;56792;50.644;17.984;2023-03-01T09:53:09;100845.00;;;21.74
69590;BMP180;56792;50.644;17.984;2023-03-01T09:55:47;100846.60;;;22.38
69590;BMP180;56792;50.644;17.984;2023-03-01T09:58:41;100851.40;;;23.00
69590;BMP180;56792;50.644;17.984;2023-03-01T10:01:37;100853.20;;;23.64
69590;BMP180;56792;50.644;17.984;2023-03-01T10:04:32;100857.00;;;24.20
69590;BMP180;56792;50.644;17.984;2023-03-01T10:07:29;100856.80;;;24.20
69590;BMP180;56792;50.644;17.984;2023-03-01T10:10:07;100858.00;;;24.26
69590;BMP180;56792;50.644;17.984;2023-03-01T10:12:44;100856.80;;;24.90
69590;BMP180;56792;50.644;17.984;2023-03-01T10:15:20;100858.60;;;25.00
69590;BMP180;56792;50.644;17.984;2023-03-01T10:17:59;100859.40;;;25.58
69590;BMP180;56792;50.644;17.984;2023-03-01T10:20:46;100863.00;;;25.92
69590;BMP180;56792;50.644;17.984;2023-03-01T10:23:22;100859.80;;;26.24
69590;BMP180;56792;50.644;17.984;2023-03-01T10:26:09;100860.00;;;26.02
69590;BMP180;56792;50.644;17.984;2023-03-01T10:28:57;100857.60;;;26.22
69590;BMP180;56792;50.644;17.984;2023-03-01T10:31:41;100857.80;;;26.22
69590;BMP180;56792;50.644;17.984;2023-03-01T10:34:18;100856.80;;;26.30
69590;BMP180;56792;50.644;17.984;2023-03-01T10:36:55;100860.00;;;26.76
69590;BMP180;56792;50.644;17.984;2023-03-01T10:39:29;100857.80;;;27.04
69590;BMP180;56792;50.644;17.984;2023-03-01T10:42:05;100854.40;;;27.30
69590;BMP180;56792;50.644;17.984;2023-03-01T10:44:45;100851.00;;;27.40
69590;BMP180;56792;50.644;17.984;2023-03-01T10:47:24;100845.40;;;27.80
69590;BMP180;56792;50.644;17.984;2023-03-01T10:50:01;100842.20;;;27.80
69590;BMP180;56792;50.644;17.984;2023-03-01T10:52:37;100838.80;;;27.90
69590;BMP180;56792;50.644;17.984;2023-03-01T10:55:30;100835.20;;;27.42
69590;BMP180;56792;50.644;17.984;2023-03-01T10:58:22;100828.40;;;27.20
69590;BMP180;56792;50.644;17.984;2023-03-01T11:00:57;100829.00;;;27.30
69590;BMP180;56792;50.644;17.984;2023-03-01T11:03:32;100828.40;;;27.70
69590;BMP180;56792;50.644;17.984;2023-03-01T11:06:22;100826.60;;;27.80
69590;BMP180;56792;50.644;17.984;2023-03-01T11:08:55;100826.20;;;27.70
69590;BMP180;56792;50.644;17.984;2023-03-01T11:11:38;100821.40;;;27.44
69590;BMP180;56792;50.644;17.984;2023-03-01T11:14:18;100818.60;;;26.94
69590;BMP180;56792;50.644;17.984;2023-03-01T11:17:01;100820.60;;;27.20
69590;BMP180;56792;50.644;17.984;2023-03-01T11:19:34;100819.20;;;27.04
69590;BMP180;56792;50.644;17.984;2023-03-01T11:22:10;100818.20;;;27.16
69590;BMP180;56792;50.644;17.984;2023-03-01T11:24:46;100822.40;;;27.20
69590;BMP180;56792;50.644;17.984;2023-03-01T11:27:24;100818.60;;;27.40
69590;BMP180;56792;50.644;17.984;2023-03-01T11:30:02;100819.40;;;27.40
69590;BMP180;56792;50.644;17.984;2023-03-01T11:32:42;100815.00;;;27.70
69590;BMP180;56792;50.644;17.984;2023-03-01T11:35:20;100820.00;;;27.90
69590;BMP180;56792;50.644;17.984;2023-03-01T11:38:17;100816.00;;;28.10
69590;BMP180;56792;50.644;17.984;2023-03-01T11:40:57;100812.20;;;27.90
69590;BMP180;56792;50.644;17.984;2023-03-01T11:43:51;100807.20;;;27.64
69590;BMP180;56792;50.644;17.984;2023-03-01T11:46:56;100804.00;;;27.62
69590;BMP180;56792;50.644;17.984;2023-03-01T11:50:08;100799.40;;;27.80
69590;BMP180;56792;50.644;17.984;2023-03-01T11:52:59;100797.20;;;28.28
69590;BMP180;56792;50.644;17.984;2023-03-01T11:55:57;100794.60;;;28.50
69590;BMP180;56792;50.644;17.984;2023-03-01T11:58:52;100791.20;;;28.72
69590;BMP180;56792;50.644;17.984;2023-03-01T12:01:46;100790.60;;;28.68
69590;BMP180;56792;50.644;17.984;2023-03-01T12:04:53;100794.40;;;28.22
69590;BMP180;56792;50.644;17.984;2023-03-01T12:07:39;100790.00;;;28.54
69590;BMP180;56792;50.644;17.984;2023-03-01T12:10:31;100788.20;;;29.08
69590;BMP180;56792;50.644;17.984;2023-03-01T12:13:27;100783.40;;;29.00
69590;BMP180;56792;50.644;17.984;2023-03-01T12:16:20;100780.80;;;28.82
69590;BMP180;56792;50.644;17.984;2023-03-01T12:19:17;100778.80;;;28.60
69590;BMP180;56792;50.644;17.984;2023-03-01T12:22:13;100774.20;;;29.10
69590;BMP180;56792;50.644;17.984;2023-03-01T12:25:23;100769.80;;;29.50
69590;BMP180;56792;50.644;17.984;2023-03-01T12:28:20;100761.20;;;29.42
69590;BMP180;56792;50.644;17.984;2023-03-01T12:34:46;100752.60;;;29.58
69590;BMP180;56792;50.644;17.984;2023-03-01T12:37:38;100754.60;;;29.90
69590;BMP180;56792;50.644;17.984;2023-03-01T12:40:51;100754.80;;;29.90
69590;BMP180;56792;50.644;17.984;2023-03-01T12:43:46;100751.40;;;29.84
69590;BMP180;56792;50.644;17.984;2023-03-01T12:46:39;100751.00;;;29.14
69590;BMP180;56792;50.644;17.984;2023-03-01T12:49:21;100746.40;;;29.04
69590;BMP180;56792;50.644;17.984;2023-03-01T12:52:03;100746.80;;;29.40
69590;BMP180;56792;50.644;17.984;2023-03-01T12:54:40;100740.20;;;29.40
69590;BMP180;56792;50.644;17.984;2023-03-01T12:57:21;100741.20;;;29.40
69590;BMP180;56792;50.644;17.984;2023-03-01T13:00:14;100737.60;;;29.40
69590;BMP180;56792;50.644;17.984;2023-03-01T13:02:58;100737.00;;;29.46
69590;BMP180;56792;50.644;17.984;2023-03-01T13:05:45;100726.00;;;29.56
69590;BMP180;56792;50.644;17.984;2023-03-01T13:08:27;100724.80;;;29.60
69590;BMP180;56792;50.644;17.984;2023-03-01T13:11:04;100721.40;;;29.90
69590;BMP180;56792;50.644;17.984;2023-03-01T13:13:37;100720.20;;;30.00
69590;BMP180;56792;50.644;17.984;2023-03-01T13:19:17;100714.80;;;29.60
69590;BMP180;56792;50.644;17.984;2023-03-01T13:21:52;100709.80;;;29.50
69590;BMP180;56792;50.644;17.984;2023-03-01T13:24:33;100709.60;;;29.60
69590;BMP180;56792;50.644;17.984;2023-03-01T13:27:23;100704.40;;;29.62
69590;BMP180;56792;50.644;17.984;2023-03-01T13:30:01;100709.40;;;29.50
69590;BMP180;56792;50.644;17.984;2023-03-01T13:32:37;100709.40;;;29.68
69590;BMP180;56792;50.644;17.984;2023-03-01T13:35:44;100711.40;;;30.00
69590;BMP180;56792;50.644;17.984;2023-03-01T13:38:57;100708.40;;;29.90
69590;BMP180;56792;50.644;17.984;2023-03-01T13:41:54;100704.60;;;29.90
69590;BMP180;56792;50.644;17.984;2023-03-01T13:44:32;100704.00;;;29.60
69590;BMP180;56792;50.644;17.984;2023-03-01T13:47:18;100697.20;;;29.50
69590;BMP180;56792;50.644;17.984;2023-03-01T13:49:53;100695.60;;;29.10
69590;BMP180;56792;50.644;17.984;2023-03-01T13:52:43;100691.80;;;29.40
69590;BMP180;56792;50.644;17.984;2023-03-01T13:55:24;100699.40;;;29.52
69590;BMP180;56792;50.644;17.984;2023-03-01T13:58:01;100700.00;;;29.52
69590;BMP180;56792;50.644;17.984;2023-03-01T14:00:38;100694.20;;;28.44
69590;BMP180;56792;50.644;17.984;2023-03-01T14:03:17;100697.80;;;27.00
69590;BMP180;56792;50.644;17.984;2023-03-01T14:06:08;100692.80;;;25.24
69590;BMP180;56792;50.644;17.984;2023-03-01T14:08:42;100687.40;;;23.70
69590;BMP180;56792;50.644;17.984;2023-03-01T14:14:41;100675.40;;;24.08
69590;BMP180;56792;50.644;17.984;2023-03-01T14:20:24;100671.80;;;23.90
69590;BMP180;56792;50.644;17.984;2023-03-01T14:23:08;100671.20;;;23.88
69590;BMP180;56792;50.644;17.984;2023-03-01T14:25:48;100665.60;;;23.90
69590;BMP180;56792;50.644;17.984;2023-03-01T14:28:25;100663.60;;;23.22
69590;BMP180;56792;50.644;17.984;2023-03-01T14:31:01;100660.80;;;22.68
69590;BMP180;56792;50.644;17.984;2023-03-01T14:33:36;100660.00;;;21.32
69590;BMP180;56792;50.644;17.984;2023-03-01T14:36:13;100652.20;;;20.30
69590;BMP180;56792;50.644;17.984;2023-03-01T14:38:47;100650.40;;;19.24
69590;BMP180;56792;50.644;17.984;2023-03-01T14:41:24;100648.40;;;18.14
69590;BMP180;56792;50.644;17.984;2023-03-01T14:44:00;100642.20;;;17.52
69590;BMP180;56792;50.644;17.984;2023-03-01T14:46:36;100640.60;;;16.72
69590;BMP180;56792;50.644;17.984;2023-03-01T14:49:12;100635.20;;;16.18
69590;BMP180;56792;50.644;17.984;2023-03-01T14:51:58;100637.20;;;15.60
69590;BMP180;56792;50.644;17.984;2023-03-01T14:54:42;100633.20;;;15.08
69590;BMP180;56792;50.644;17.984;2023-03-01T14:57:20;100631.60;;;14.62
69590;BMP180;56792;50.644;17.984;2023-03-01T14:59:57;100631.40;;;14.30